createdAt,value
2019-05-09T00:01:43.744Z,9.03
2019-05-09T00:04:14.015Z,7.97
2019-05-09T00:06:44.635Z,8.67
2019-05-09T00:09:15.392Z,8.30
2019-05-09T00:11:45.952Z,8.67
2019-05-09T00:14:16.523Z,9.97
2019-05-09T00:16:47.110Z,8.80
2019-05-09T00:19:17.708Z,7.50
2019-05-09T00:21:54.062Z,7.70
2019-05-09T00:24:24.758Z,8.27
2019-05-09T00:26:55.344Z,8.23
2019-05-09T00:29:30.554Z,8.33
2019-05-09T00:32:18.083Z,8.50
2019-05-09T00:34:56.069Z,8.10
2019-05-09T00:37:44.815Z,8.20
2019-05-09T00:40:16.369Z,8.33
2019-05-09T00:42:46.930Z,7.67
2019-05-09T00:45:19.141Z,7.83
2019-05-09T00:47:49.721Z,8.03
2019-05-09T00:50:20.304Z,7.30
2019-05-09T00:52:50.980Z,7.23
2019-05-09T00:55:23.747Z,7.37
2019-05-09T00:57:53.963Z,8.17
2019-05-09T01:00:24.813Z,7.00
2019-05-09T01:02:55.455Z,7.43
2019-05-09T01:05:26.316Z,8.30
2019-05-09T01:07:58.333Z,8.00
2019-05-09T01:10:29.146Z,7.90
2019-05-09T01:12:59.621Z,7.60
2019-05-09T01:15:30.203Z,8.10
2019-05-09T01:18:00.786Z,8.80
2019-05-09T01:20:33.319Z,8.47
2019-05-09T01:23:03.662Z,7.70
2019-05-09T01:25:34.214Z,7.80
2019-05-09T01:28:04.842Z,7.67
2019-05-09T01:30:35.474Z,7.87
2019-05-09T01:33:24.200Z,8.63
2019-05-09T01:35:54.887Z,8.20
2019-05-09T01:38:25.494Z,8.20
2019-05-09T01:40:56.086Z,8.03
2019-05-09T01:43:26.666Z,8.30
2019-05-09T01:45:57.259Z,8.40
2019-05-09T01:48:29.533Z,7.77
2019-05-09T01:51:00.088Z,8.67
2019-05-09T01:53:33.438Z,8.37
2019-05-09T01:56:05.276Z,8.47
2019-05-09T01:58:35.873Z,8.10
2019-05-09T02:01:08.321Z,8.77
2019-05-09T02:03:38.902Z,7.90
2019-05-09T02:06:09.481Z,8.40
2019-05-09T02:08:40.037Z,8.27
2019-05-09T02:11:13.090Z,7.67
2019-05-09T02:13:44.215Z,8.57
2019-05-09T02:16:19.521Z,8.23
2019-05-09T02:18:54.694Z,8.00
2019-05-09T02:21:25.253Z,8.20
2019-05-09T02:23:55.839Z,8.77
2019-05-09T02:26:26.389Z,9.13
2019-05-09T02:28:56.967Z,8.60
2019-05-09T02:31:27.623Z,9.03
2019-05-09T02:33:58.176Z,9.07
2019-05-09T02:36:29.595Z,8.83
2019-05-09T02:39:00.210Z,8.47
2019-05-09T02:41:30.846Z,8.70
2019-05-09T02:44:01.454Z,9.17
2019-05-09T02:46:39.657Z,9.37
2019-05-09T02:49:11.745Z,8.43
2019-05-09T02:51:42.558Z,8.67
2019-05-09T02:54:13.113Z,8.40
2019-05-09T02:56:44.436Z,9.57
2019-05-09T02:59:32.782Z,8.53
2019-05-09T03:02:19.560Z,9.53
2019-05-09T03:04:49.276Z,9.40
2019-05-09T03:07:21.469Z,9.10
2019-05-09T03:09:52.038Z,8.90
2019-05-09T03:12:32.051Z,9.37
2019-05-09T03:14:54.852Z,9.53
2019-05-09T03:17:27.856Z,9.63
2019-05-09T03:19:58.639Z,8.63
2019-05-09T03:22:29.594Z,9.63
2019-05-09T03:25:00.166Z,8.80
2019-05-09T03:27:32.383Z,9.10
2019-05-09T03:30:04.596Z,9.50
2019-05-09T03:32:38.537Z,9.13
2019-05-09T03:35:08.407Z,9.30
2019-05-09T03:37:39.056Z,9.53
2019-05-09T03:40:09.701Z,9.80
2019-05-09T03:42:43.599Z,8.40
2019-05-09T03:45:14.270Z,9.27
2019-05-09T03:47:49.164Z,10.13
2019-05-09T03:50:19.740Z,9.10
2019-05-09T03:52:50.294Z,10.33
2019-05-09T03:55:22.512Z,9.73
2019-05-09T03:58:03.568Z,9.17
2019-05-09T04:00:34.129Z,9.77
2019-05-09T04:03:04.774Z,9.03
2019-05-09T04:05:37.519Z,9.40
2019-05-09T04:08:18.221Z,9.27
2019-05-09T04:10:51.575Z,8.97
2019-05-09T04:13:24.333Z,9.50
2019-05-09T04:15:55.219Z,9.90
2019-05-09T04:18:27.735Z,10.37
2019-05-09T04:20:58.372Z,10.27
2019-05-09T04:23:28.951Z,10.03
2019-05-09T04:26:01.193Z,9.63
2019-05-09T04:28:31.826Z,10.23
2019-05-09T04:31:02.392Z,9.70
2019-05-09T04:33:32.967Z,9.43
2019-05-09T04:36:03.574Z,9.93
2019-05-09T04:38:34.249Z,9.70
2019-05-09T04:41:04.893Z,9.73
2019-05-09T04:43:39.455Z,10.37
2019-05-09T04:46:12.861Z,10.17
2019-05-09T04:48:42.262Z,9.97
2019-05-09T04:51:12.844Z,9.70
2019-05-09T04:53:43.408Z,9.20
2019-05-09T04:56:24.902Z,10.07
2019-05-09T04:58:55.487Z,9.60
2019-05-09T05:01:39.900Z,9.70
2019-05-09T05:04:10.903Z,10.50
2019-05-09T05:06:42.417Z,9.53
2019-05-09T05:09:13.101Z,10.43
2019-05-09T05:11:46.520Z,51.50
2019-05-09T05:14:22.667Z,92.40
2019-05-09T05:16:55.728Z,33.30
2019-05-09T05:19:30.929Z,15.57
2019-05-09T05:22:01.250Z,12.57
2019-05-09T05:24:39.288Z,9.93
2019-05-09T05:27:10.034Z,10.30
2019-05-09T05:29:40.611Z,9.20
2019-05-09T05:32:14.106Z,9.80
2019-05-09T05:34:48.034Z,9.53
2019-05-09T05:37:19.598Z,9.07
2019-05-09T05:39:50.206Z,8.80
2019-05-09T05:42:22.259Z,9.13
2019-05-09T05:44:53.776Z,9.20
2019-05-09T05:47:27.254Z,9.00
2019-05-09T05:49:58.262Z,9.73
2019-05-09T05:52:28.840Z,9.30
2019-05-09T05:55:00.215Z,8.83
2019-05-09T05:57:30.929Z,8.80
2019-05-09T06:00:01.480Z,8.83
2019-05-09T06:02:33.166Z,8.93
2019-05-09T06:05:04.340Z,8.53
2019-05-09T06:07:34.918Z,8.77
2019-05-09T06:10:08.264Z,8.60
2019-05-09T06:12:38.629Z,11.50
2019-05-09T06:15:09.851Z,9.90
2019-05-09T06:17:40.430Z,9.83
2019-05-09T06:20:11.352Z,8.87
2019-05-09T06:22:41.898Z,8.40
2019-05-09T06:25:12.542Z,8.87
2019-05-09T06:27:43.109Z,8.60
2019-05-09T06:30:17.577Z,11.00
2019-05-09T06:32:48.166Z,9.73
2019-05-09T06:35:21.898Z,9.23
2019-05-09T06:37:52.457Z,9.20
2019-05-09T06:40:24.668Z,8.20
2019-05-09T06:42:55.295Z,9.43
2019-05-09T06:45:30.714Z,9.30
2019-05-09T06:48:01.352Z,9.40
2019-05-09T06:50:31.954Z,9.90
2019-05-09T06:53:02.511Z,8.37
2019-05-09T06:55:33.098Z,9.17
2019-05-09T06:58:05.385Z,10.63
2019-05-09T07:00:39.116Z,10.63
2019-05-09T07:03:11.637Z,9.80
2019-05-09T07:05:53.173Z,10.00
2019-05-09T07:08:31.197Z,10.67
2019-05-09T07:11:00.534Z,9.23
2019-05-09T07:13:31.200Z,9.03
2019-05-09T07:16:02.235Z,9.23
2019-05-09T07:18:32.813Z,8.37
2019-05-09T07:21:03.698Z,8.60
2019-05-09T07:23:34.284Z,8.33
2019-05-09T07:26:12.566Z,9.03
2019-05-09T07:28:43.157Z,9.20
2019-05-09T07:31:28.437Z,9.13
2019-05-09T07:34:03.746Z,8.40
2019-05-09T07:36:34.698Z,8.80
2019-05-09T07:39:08.712Z,8.40
2019-05-09T07:41:39.651Z,8.80
2019-05-09T07:44:10.219Z,16.00
2019-05-09T07:46:51.237Z,16.67
2019-05-09T07:49:21.843Z,20.23
2019-05-09T07:51:52.522Z,14.60
2019-05-09T07:54:25.701Z,11.30
2019-05-09T07:56:57.855Z,11.43
2019-05-09T07:59:27.744Z,11.30
2019-05-09T08:01:58.441Z,10.57
2019-05-09T08:04:29.014Z,10.83
2019-05-09T08:06:59.877Z,11.03
2019-05-09T08:09:33.009Z,15.30
2019-05-09T08:12:03.591Z,13.10
2019-05-09T08:14:39.259Z,12.43
2019-05-09T08:17:10.123Z,9.50
2019-05-09T08:19:40.702Z,9.70
2019-05-09T08:22:12.380Z,9.30
2019-05-09T08:24:44.087Z,9.53
2019-05-09T08:27:14.653Z,9.90
2019-05-09T08:29:47.689Z,8.67
2019-05-09T08:32:18.160Z,8.90
2019-05-09T08:34:48.802Z,8.67
2019-05-09T08:37:19.380Z,8.83
2019-05-09T08:39:49.953Z,8.93
2019-05-09T08:42:20.523Z,10.03
2019-05-09T08:44:51.090Z,8.43
2019-05-09T08:47:21.669Z,9.33
2019-05-09T08:50:01.583Z,9.63
2019-05-09T08:52:32.129Z,9.60
2019-05-09T08:55:02.741Z,9.27
2019-05-09T08:57:33.424Z,9.13
2019-05-09T09:00:08.701Z,10.47
2019-05-09T09:02:39.253Z,9.87
2019-05-09T09:05:10.073Z,10.13
2019-05-09T09:07:40.649Z,8.60
2019-05-09T09:10:11.645Z,9.10
2019-05-09T09:12:42.268Z,8.90
2019-05-09T09:15:12.934Z,9.00
2019-05-09T09:17:43.518Z,9.20
2019-05-09T09:20:14.218Z,9.63
2019-05-09T09:22:44.807Z,11.33
2019-05-09T09:25:15.406Z,11.00
2019-05-09T09:27:50.696Z,22.03
2019-05-09T09:30:24.713Z,11.70
2019-05-09T09:32:51.147Z,11.80
2019-05-09T09:35:21.814Z,14.37
2019-05-09T09:37:52.476Z,16.90
2019-05-09T09:40:23.959Z,14.63
2019-05-09T09:42:54.564Z,15.37
2019-05-09T09:45:27.739Z,12.93
2019-05-09T09:47:59.196Z,11.00
2019-05-09T09:50:30.182Z,11.37
2019-05-09T09:53:01.843Z,10.37
2019-05-09T09:55:32.608Z,11.70
2019-05-09T09:58:03.723Z,11.60
2019-05-09T10:01:08.810Z,9.87
2019-05-09T10:03:38.323Z,11.10
2019-05-09T10:06:09.130Z,11.10
2019-05-09T10:08:40.472Z,10.63
2019-05-09T10:11:11.418Z,10.40
2019-05-09T10:13:42.003Z,10.50
2019-05-09T10:16:28.590Z,10.17
2019-05-09T10:18:48.145Z,10.70
2019-05-09T10:21:20.366Z,10.73
2019-05-09T10:23:51.176Z,9.47
2019-05-09T10:26:21.782Z,8.83
2019-05-09T10:28:52.341Z,9.10
2019-05-09T10:31:23.093Z,10.30
2019-05-09T10:33:55.168Z,10.60
2019-05-09T10:36:27.848Z,9.60
2019-05-09T10:38:58.841Z,8.53
2019-05-09T10:41:29.989Z,8.83
2019-05-09T10:44:02.207Z,9.97
2019-05-09T10:46:52.135Z,8.70
2019-05-09T10:49:08.517Z,8.93
2019-05-09T10:51:39.193Z,10.07
2019-05-09T10:54:09.784Z,9.03
2019-05-09T10:56:40.457Z,24.93
2019-05-09T10:59:11.200Z,16.57
2019-05-09T11:01:41.795Z,13.27
2019-05-09T11:04:12.873Z,20.90
2019-05-09T11:06:43.431Z,16.90
2019-05-09T11:09:14.008Z,13.50
2019-05-09T11:11:44.740Z,10.73
2019-05-09T11:14:31.606Z,10.00
2019-05-09T11:16:54.295Z,10.70
2019-05-09T11:19:20.027Z,9.70
2019-05-09T11:21:50.597Z,9.90
2019-05-09T11:24:21.465Z,9.63
2019-05-09T11:26:53.641Z,9.83
2019-05-09T11:29:24.207Z,9.27
2019-05-09T11:31:54.772Z,9.43
2019-05-09T11:34:25.402Z,8.73
2019-05-09T11:36:57.908Z,7.90
2019-05-09T11:39:36.548Z,8.63
2019-05-09T11:42:00.553Z,8.13
2019-05-09T11:44:31.118Z,8.73
2019-05-09T11:47:01.689Z,7.67
2019-05-09T11:49:32.515Z,8.63
2019-05-09T11:52:03.088Z,7.53
2019-05-09T11:54:33.755Z,8.10
2019-05-09T11:57:04.327Z,7.80
2019-05-09T11:59:34.890Z,8.30
2019-05-09T12:02:08.917Z,6.97
2019-05-09T12:04:39.090Z,8.03
2019-05-09T12:07:09.666Z,8.03
2019-05-09T12:09:40.226Z,6.63
2019-05-09T12:12:10.795Z,7.87
2019-05-09T12:14:41.365Z,6.43
2019-05-09T12:17:11.920Z,7.37
2019-05-09T12:19:42.496Z,7.47
2019-05-09T12:22:13.087Z,6.40
2019-05-09T12:24:44.885Z,6.53
2019-05-09T12:27:18.571Z,6.90
2019-05-09T12:29:48.400Z,40.47
2019-05-09T12:32:22.094Z,16.60
2019-05-09T12:34:52.723Z,14.23
2019-05-09T12:37:23.319Z,9.10
2019-05-09T12:39:55.805Z,7.70
2019-05-09T12:42:28.835Z,9.83
2019-05-09T12:44:59.107Z,8.70
2019-05-09T12:47:29.852Z,7.90
2019-05-09T12:50:02.923Z,7.70
2019-05-09T12:52:33.045Z,7.73
2019-05-09T12:55:04.330Z,7.20
2019-05-09T12:57:34.896Z,7.30
2019-05-09T13:00:11.985Z,7.40
2019-05-09T13:02:42.581Z,6.57
2019-05-09T13:05:13.396Z,6.17
2019-05-09T13:07:44.017Z,6.80
2019-05-09T13:10:14.811Z,6.03
2019-05-09T13:12:47.591Z,6.73
2019-05-09T13:15:20.854Z,7.17
2019-05-09T13:17:52.342Z,6.57
2019-05-09T13:20:22.918Z,7.00
2019-05-09T13:22:53.480Z,7.17
2019-05-09T13:25:24.115Z,6.13
2019-05-09T13:27:55.073Z,6.67
2019-05-09T13:30:28.308Z,6.17
2019-05-09T13:32:57.991Z,6.13
2019-05-09T13:35:28.625Z,5.97
2019-05-09T13:37:59.793Z,5.83
2019-05-09T13:40:30.426Z,6.30
2019-05-09T13:43:01.118Z,5.73
2019-05-09T13:45:31.699Z,6.43
2019-05-09T13:48:02.284Z,6.07
2019-05-09T13:50:33.942Z,6.00
2019-05-09T13:53:04.558Z,6.03
2019-05-09T13:55:37.921Z,6.17
2019-05-09T13:58:07.748Z,6.37
2019-05-09T14:00:39.413Z,6.67
2019-05-09T14:03:11.231Z,6.73
2019-05-09T14:05:42.817Z,6.33
2019-05-09T14:08:14.285Z,5.90
2019-05-09T14:10:44.922Z,6.20
2019-05-09T14:13:15.507Z,5.90
2019-05-09T14:15:48.672Z,6.07
2019-05-09T14:18:19.103Z,6.87
2019-05-09T14:20:49.852Z,6.57
2019-05-09T14:23:21.520Z,12.27
2019-05-09T14:25:52.226Z,7.60
2019-05-09T14:28:22.871Z,6.87
2019-05-09T14:30:53.754Z,6.43
2019-05-09T14:33:24.646Z,6.63
2019-05-09T14:35:55.232Z,8.03
2019-05-09T14:38:28.035Z,7.17
2019-05-09T14:40:59.483Z,7.73
2019-05-09T14:43:30.530Z,7.50
2019-05-09T14:46:01.222Z,7.77
2019-05-09T14:48:31.824Z,7.93
2019-05-09T14:51:02.524Z,8.20
2019-05-09T14:53:33.383Z,7.20
2019-05-09T14:56:04.082Z,7.27
2019-05-09T14:58:34.652Z,8.33
2019-05-09T15:01:08.388Z,7.33
2019-05-09T15:03:38.905Z,7.17
2019-05-09T15:06:09.820Z,7.73
2019-05-09T15:08:40.428Z,8.40
2019-05-09T15:11:11.161Z,8.17
2019-05-09T15:13:41.723Z,7.17
2019-05-09T15:16:13.988Z,7.50
2019-05-09T15:18:44.590Z,8.00
2019-05-09T15:21:16.658Z,6.93
2019-05-09T15:23:48.192Z,7.53
2019-05-09T15:26:20.511Z,7.53
2019-05-09T15:28:51.086Z,7.47
2019-05-09T15:31:22.067Z,8.77
2019-05-09T15:33:52.724Z,8.27
2019-05-09T15:36:23.400Z,11.07
2019-05-09T15:38:54.091Z,9.80
2019-05-09T15:41:24.677Z,68.77
2019-05-09T15:43:57.919Z,17.63
2019-05-09T15:46:30.007Z,13.83
2019-05-09T15:49:00.630Z,56.03
2019-05-09T15:51:32.195Z,32.33
2019-05-09T15:54:02.932Z,20.93
2019-05-09T15:56:33.689Z,27.20
2019-05-09T15:59:04.309Z,18.70
2019-05-09T16:01:38.520Z,16.93
2019-05-09T16:04:09.143Z,52.77
2019-05-09T16:06:39.753Z,36.90
2019-05-09T16:09:12.059Z,31.40
2019-05-09T16:11:42.853Z,26.53
2019-05-09T16:14:14.610Z,29.27
2019-05-09T16:16:47.850Z,38.87
2019-05-09T16:19:19.352Z,51.20
2019-05-09T16:21:49.959Z,35.67
2019-05-09T16:24:20.559Z,19.13
2019-05-09T16:26:51.605Z,16.77
2019-05-09T16:29:22.279Z,30.47
2019-05-09T16:31:53.146Z,39.47
2019-05-09T16:34:23.718Z,178.43
2019-05-09T16:36:54.325Z,148.63
2019-05-09T16:39:27.794Z,111.53
2019-05-09T16:41:59.158Z,75.07
2019-05-09T16:44:29.955Z,47.03
2019-05-09T16:47:00.552Z,45.90
2019-05-09T16:49:31.152Z,26.30
2019-05-09T16:52:01.733Z,21.70
2019-05-09T16:54:34.026Z,25.40
2019-05-09T16:57:04.663Z,24.67
2019-05-09T16:59:35.242Z,21.70
2019-05-09T17:02:18.714Z,22.63
2019-05-09T17:04:40.432Z,24.07
2019-05-09T17:07:11.009Z,21.50
2019-05-09T17:09:44.983Z,20.27
2019-05-09T17:12:18.658Z,19.00
2019-05-09T17:14:49.372Z,19.27
2019-05-09T17:17:19.976Z,20.57
2019-05-09T17:19:50.922Z,16.77
2019-05-09T17:22:39.850Z,16.53
2019-05-09T17:25:10.539Z,15.20
2019-05-09T17:27:41.491Z,13.23
2019-05-09T17:30:12.295Z,16.30
2019-05-09T17:32:43.126Z,17.93
2019-05-09T17:35:14.677Z,29.63
2019-05-09T17:37:45.280Z,35.97
2019-05-09T17:40:19.050Z,106.67
2019-05-09T17:42:48.581Z,184.90
2019-05-09T17:45:20.098Z,62.87
2019-05-09T17:47:51.115Z,39.13
2019-05-09T17:50:21.981Z,22.23
2019-05-09T17:52:52.787Z,19.07
2019-05-09T17:55:23.468Z,17.57
2019-05-09T17:57:54.139Z,16.40
2019-05-09T18:00:27.836Z,18.33
2019-05-09T18:02:59.160Z,47.77
2019-05-09T18:05:31.726Z,38.87
2019-05-09T18:08:03.900Z,60.93
2019-05-09T18:10:38.043Z,42.60
2019-05-09T18:13:08.541Z,40.33
2019-05-09T18:15:40.089Z,30.90
2019-05-09T18:18:10.850Z,18.83
2019-05-09T18:20:42.946Z,13.93
2019-05-09T18:23:13.604Z,11.77
2019-05-09T18:25:49.197Z,11.03
2019-05-09T18:28:19.336Z,12.43
2019-05-09T18:30:50.080Z,13.40
2019-05-09T18:33:38.080Z,12.53
2019-05-09T18:36:09.215Z,13.27
2019-05-09T18:38:41.933Z,14.07
2019-05-09T18:41:17.686Z,12.70
2019-05-09T18:43:48.269Z,13.07
2019-05-09T18:46:21.721Z,11.53
2019-05-09T18:48:52.658Z,13.13
2019-05-09T18:51:23.668Z,14.13
2019-05-09T18:53:54.304Z,12.27
2019-05-09T18:56:24.884Z,11.90
2019-05-09T18:58:55.568Z,25.50
2019-05-09T19:01:26.285Z,20.97
2019-05-09T19:03:57.665Z,15.87
2019-05-09T19:06:28.478Z,14.07
2019-05-09T19:08:59.579Z,12.90
2019-05-09T19:11:30.921Z,12.23
2019-05-09T19:14:03.527Z,13.37
2019-05-09T19:16:52.891Z,12.83
2019-05-09T19:19:25.325Z,14.63
2019-05-09T19:22:06.384Z,34.93
2019-05-09T19:24:34.425Z,69.53
2019-05-09T19:27:05.339Z,63.53
2019-05-09T19:29:35.988Z,43.63
2019-05-09T19:32:07.504Z,32.57
2019-05-09T19:34:42.406Z,21.90
2019-05-09T19:37:13.153Z,19.93
2019-05-09T19:39:43.778Z,22.27
2019-05-09T19:42:15.686Z,21.23
2019-05-09T19:44:46.984Z,23.00
2019-05-09T19:47:19.205Z,25.40
2019-05-09T19:49:50.470Z,24.37
2019-05-09T19:52:36.205Z,25.40
2019-05-09T19:54:55.658Z,30.07
2019-05-09T19:57:27.465Z,31.37
2019-05-09T19:59:58.262Z,23.50
2019-05-09T20:02:29.745Z,21.43
2019-05-09T20:05:00.724Z,18.40
2019-05-09T20:07:33.072Z,14.87
2019-05-09T20:10:11.337Z,15.60
2019-05-09T20:13:00.842Z,14.07
2019-05-09T20:15:31.544Z,13.63
2019-05-09T20:18:02.297Z,12.07
2019-05-09T20:20:33.287Z,14.70
2019-05-09T20:23:04.472Z,13.73
2019-05-09T20:25:35.182Z,13.03
2019-05-09T20:28:06.147Z,13.90
2019-05-09T20:30:36.686Z,12.90
2019-05-09T20:33:07.779Z,13.90
2019-05-09T20:35:38.756Z,13.27
2019-05-09T20:38:10.099Z,14.30
2019-05-09T20:40:42.401Z,12.60
2019-05-09T20:43:13.573Z,13.07
2019-05-09T20:45:44.990Z,13.47
2019-05-09T20:48:15.971Z,12.87
2019-05-09T20:50:46.832Z,11.60
2019-05-09T20:53:17.745Z,12.00
2019-05-09T20:55:48.885Z,14.93
2019-05-09T20:58:19.638Z,14.37
2019-05-09T21:00:50.542Z,14.00
2019-05-09T21:03:21.474Z,15.43
2019-05-09T21:05:52.309Z,16.53
2019-05-09T21:08:24.314Z,15.43
2019-05-09T21:10:55.125Z,14.67
2019-05-09T21:13:26.102Z,16.57
2019-05-09T21:15:56.958Z,19.03
2019-05-09T21:18:27.952Z,18.23
2019-05-09T21:20:59.818Z,16.90
2019-05-09T21:23:30.602Z,14.77
2019-05-09T21:26:01.414Z,14.47
2019-05-09T21:28:33.160Z,13.77
2019-05-09T21:31:04.329Z,16.03
2019-05-09T21:33:35.438Z,14.07
2019-05-09T21:36:06.038Z,15.13
2019-05-09T21:38:36.618Z,14.97
2019-05-09T21:41:07.188Z,13.63
2019-05-09T21:43:37.769Z,13.83
2019-05-09T21:46:08.352Z,12.63
2019-05-09T21:48:38.930Z,12.30
2019-05-09T21:51:09.564Z,11.07
2019-05-09T21:53:41.347Z,12.00
2019-05-09T21:56:12.129Z,12.30
2019-05-09T21:58:42.719Z,13.23
2019-05-09T22:01:16.418Z,12.07
2019-05-09T22:03:47.407Z,11.70
2019-05-09T22:06:17.988Z,11.67
2019-05-09T22:08:48.570Z,11.87
2019-05-09T22:11:19.145Z,14.03
2019-05-09T22:13:49.704Z,12.77
2019-05-09T22:16:21.233Z,14.87
2019-05-09T22:18:52.173Z,13.17
2019-05-09T22:21:22.822Z,12.93
2019-05-09T22:23:56.786Z,17.20
2019-05-09T22:26:25.684Z,16.60
2019-05-09T22:28:56.255Z,19.47
2019-05-09T22:31:26.836Z,16.50
2019-05-09T22:33:57.411Z,15.33
2019-05-09T22:36:27.969Z,12.93
2019-05-09T22:38:58.552Z,11.90
2019-05-09T22:41:29.109Z,11.73
2019-05-09T22:43:59.761Z,11.57
2019-05-09T22:46:30.439Z,12.27
2019-05-09T22:49:01.025Z,13.30
2019-05-09T22:51:31.577Z,12.83
2019-05-09T22:54:12.415Z,12.90
2019-05-09T22:56:34.536Z,12.17
2019-05-09T22:59:05.394Z,12.03
2019-05-09T23:01:35.973Z,11.90
2019-05-09T23:04:06.582Z,13.67
2019-05-09T23:06:37.520Z,13.67
2019-05-09T23:09:08.131Z,11.83
2019-05-09T23:11:38.807Z,12.70
2019-05-09T23:14:09.596Z,12.10
2019-05-09T23:16:41.142Z,12.00
2019-05-09T23:19:11.724Z,11.17
2019-05-09T23:21:42.308Z,11.73
2019-05-09T23:24:27.486Z,11.67
2019-05-09T23:26:47.122Z,12.40
2019-05-09T23:29:17.858Z,11.83
2019-05-09T23:31:50.078Z,11.53
2019-05-09T23:34:20.656Z,10.63
2019-05-09T23:36:51.338Z,13.10
2019-05-09T23:39:29.420Z,11.10
2019-05-09T23:42:00.014Z,12.80
2019-05-09T23:44:30.790Z,12.20
2019-05-09T23:47:01.384Z,13.53
2019-05-09T23:49:31.996Z,13.97
2019-05-09T23:52:02.859Z,14.00
2019-05-09T23:54:51.423Z,13.47
2019-05-09T23:57:39.771Z,15.27
